sensor_id;sensor_type;location;lat;lon;timestamp;pressure;altitude;pressure_sealevel;temperature;humidity
55687;BME280;41911;52.362;4.978;2022-12-18T00:01:27;102817.57;;;-3.31;49.36
55687;BME280;41911;52.362;4.978;2022-12-18T00:01:59;102818.38;;;-3.21;49.39
55687;BME280;41911;52.362;4.978;2022-12-18T00:02:30;102815.93;;;-3.37;49.53
55687;BME280;41911;52.362;4.978;2022-12-18T00:03:01;102815.68;;;-3.15;49.61
55687;BME280;41911;52.362;4.978;2022-12-18T00:03:32;102815.09;;;-2.89;49.68
55687;BME280;41911;52.362;4.978;2022-12-18T00:04:05;102813.10;;;-2.80;49.65
55687;BME280;41911;52.362;4.978;2022-12-18T00:04:36;102811.28;;;-2.57;49.37
55687;BME280;41911;52.362;4.978;2022-12-18T00:05:07;102811.84;;;-2.97;49.32
55687;BME280;41911;52.362;4.978;2022-12-18T00:05:46;102807.64;;;-3.00;49.32
55687;BME280;41911;52.362;4.978;2022-12-18T00:06:18;102806.34;;;-3.16;49.50
55687;BME280;41911;52.362;4.978;2022-12-18T00:06:49;102807.79;;;-2.51;49.63
55687;BME280;41911;52.362;4.978;2022-12-18T00:07:21;102808.15;;;-3.09;49.63
55687;BME280;41911;52.362;4.978;2022-12-18T00:07:52;102810.30;;;-3.04;49.71
55687;BME280;41911;52.362;4.978;2022-12-18T00:08:23;102806.97;;;-3.28;49.77
55687;BME280;41911;52.362;4.978;2022-12-18T00:08:55;102808.93;;;-3.18;49.69
55687;BME280;41911;52.362;4.978;2022-12-18T00:09:27;102810.10;;;-2.80;49.65
55687;BME280;41911;52.362;4.978;2022-12-18T00:09:58;102810.21;;;-2.69;49.55
55687;BME280;41911;52.362;4.978;2022-12-18T00:10:29;102811.18;;;-2.70;49.52
55687;BME280;41911;52.362;4.978;2022-12-18T00:11:05;102811.29;;;-3.07;49.65
55687;BME280;41911;52.362;4.978;2022-12-18T00:11:36;102810.29;;;-2.65;49.48
55687;BME280;41911;52.362;4.978;2022-12-18T00:12:07;102809.11;;;-2.53;49.47
55687;BME280;41911;52.362;4.978;2022-12-18T00:12:38;102808.83;;;-2.76;49.34
55687;BME280;41911;52.362;4.978;2022-12-18T00:13:09;102808.15;;;-2.92;49.54
55687;BME280;41911;52.362;4.978;2022-12-18T00:13:40;102809.38;;;-2.66;49.28
55687;BME280;41911;52.362;4.978;2022-12-18T00:14:12;102807.37;;;-2.92;49.32
55687;BME280;41911;52.362;4.978;2022-12-18T00:14:43;102808.92;;;-3.03;49.64
55687;BME280;41911;52.362;4.978;2022-12-18T00:15:16;102808.93;;;-2.77;49.58
55687;BME280;41911;52.362;4.978;2022-12-18T00:15:47;102809.90;;;-3.19;49.70
55687;BME280;41911;52.362;4.978;2022-12-18T00:16:20;102805.67;;;-3.09;49.93
55687;BME280;41911;52.362;4.978;2022-12-18T00:16:51;102803.46;;;-3.03;50.01
55687;BME280;41911;52.362;4.978;2022-12-18T00:17:22;102803.58;;;-3.23;49.88
55687;BME280;41911;52.362;4.978;2022-12-18T00:17:53;102806.40;;;-2.89;49.93
55687;BME280;41911;52.362;4.978;2022-12-18T00:18:24;102808.66;;;-2.74;49.67
55687;BME280;41911;52.362;4.978;2022-12-18T00:18:56;102804.00;;;-3.12;49.64
55687;BME280;41911;52.362;4.978;2022-12-18T00:19:27;102807.00;;;-2.59;49.57
55687;BME280;41911;52.362;4.978;2022-12-18T00:19:58;102806.71;;;-2.54;49.48
55687;BME280;41911;52.362;4.978;2022-12-18T00:20:30;102806.96;;;-2.57;49.40
55687;BME280;41911;52.362;4.978;2022-12-18T00:21:02;102805.15;;;-2.75;49.23
55687;BME280;41911;52.362;4.978;2022-12-18T00:21:34;102807.72;;;-2.85;49.41
55687;BME280;41911;52.362;4.978;2022-12-18T00:22:05;102810.55;;;-2.96;49.59
55687;BME280;41911;52.362;4.978;2022-12-18T00:22:36;102811.32;;;-2.72;49.45
55687;BME280;41911;52.362;4.978;2022-12-18T00:23:07;102813.89;;;-2.67;49.47
55687;BME280;41911;52.362;4.978;2022-12-18T00:23:41;102813.98;;;-2.60;49.23
55687;BME280;41911;52.362;4.978;2022-12-18T00:24:12;102814.68;;;-2.80;49.39
55687;BME280;41911;52.362;4.978;2022-12-18T00:24:43;102815.22;;;-2.98;49.64
55687;BME280;41911;52.362;4.978;2022-12-18T00:25:14;102815.43;;;-3.05;49.74
55687;BME280;41911;52.362;4.978;2022-12-18T00:25:45;102815.59;;;-3.35;49.77
55687;BME280;41911;52.362;4.978;2022-12-18T00:26:20;102813.93;;;-3.10;49.92
55687;BME280;41911;52.362;4.978;2022-12-18T00:26:54;102814.72;;;-3.20;49.63
55687;BME280;41911;52.362;4.978;2022-12-18T00:27:25;102814.54;;;-3.14;49.60
55687;BME280;41911;52.362;4.978;2022-12-18T00:27:55;102813.57;;;-2.98;49.36
55687;BME280;41911;52.362;4.978;2022-12-18T00:28:27;102814.93;;;-2.63;49.31
55687;BME280;41911;52.362;4.978;2022-12-18T00:29:00;102813.70;;;-3.00;49.41
55687;BME280;41911;52.362;4.978;2022-12-18T00:29:31;102812.48;;;-2.88;49.39
55687;BME280;41911;52.362;4.978;2022-12-18T00:30:02;102811.25;;;-2.49;49.10
55687;BME280;41911;52.362;4.978;2022-12-18T00:30:36;102812.63;;;-2.58;49.15
55687;BME280;41911;52.362;4.978;2022-12-18T00:31:08;102807.92;;;-2.77;49.39
55687;BME280;41911;52.362;4.978;2022-12-18T00:31:40;102807.28;;;-2.66;49.28
55687;BME280;41911;52.362;4.978;2022-12-18T00:32:11;102807.31;;;-2.93;49.31
55687;BME280;41911;52.362;4.978;2022-12-18T00:32:42;102805.78;;;-3.27;49.27
55687;BME280;41911;52.362;4.978;2022-12-18T00:33:13;102802.71;;;-3.18;49.54
55687;BME280;41911;52.362;4.978;2022-12-18T00:33:44;102800.40;;;-2.64;49.32
55687;BME280;41911;52.362;4.978;2022-12-18T00:34:15;102799.38;;;-3.18;49.38
55687;BME280;41911;52.362;4.978;2022-12-18T00:34:46;102797.95;;;-2.73;49.43
55687;BME280;41911;52.362;4.978;2022-12-18T00:35:17;102797.74;;;-3.35;49.55
55687;BME280;41911;52.362;4.978;2022-12-18T00:35:48;102796.62;;;-2.73;49.41
55687;BME280;41911;52.362;4.978;2022-12-18T00:36:21;102796.07;;;-2.42;49.15
55687;BME280;41911;52.362;4.978;2022-12-18T00:36:53;102793.39;;;-3.00;49.16
55687;BME280;41911;52.362;4.978;2022-12-18T00:37:24;102798.24;;;-2.64;49.37
55687;BME280;41911;52.362;4.978;2022-12-18T00:37:55;102796.67;;;-2.90;49.25
55687;BME280;41911;52.362;4.978;2022-12-18T00:38:26;102798.59;;;-2.79;49.10
55687;BME280;41911;52.362;4.978;2022-12-18T00:38:58;102796.59;;;-2.85;48.96
55687;BME280;41911;52.362;4.978;2022-12-18T00:39:30;102795.52;;;-2.97;49.16
55687;BME280;41911;52.362;4.978;2022-12-18T00:40:01;102796.70;;;-2.87;49.26
55687;BME280;41911;52.362;4.978;2022-12-18T00:40:32;102795.74;;;-3.28;49.42
55687;BME280;41911;52.362;4.978;2022-12-18T00:41:04;102799.27;;;-2.94;49.49
55687;BME280;41911;52.362;4.978;2022-12-18T00:41:35;102801.15;;;-3.18;49.49
55687;BME280;41911;52.362;4.978;2022-12-18T00:42:07;102801.71;;;-3.23;49.63
55687;BME280;41911;52.362;4.978;2022-12-18T00:42:38;102803.30;;;-3.13;49.42
55687;BME280;41911;52.362;4.978;2022-12-18T00:43:09;102804.81;;;-3.31;49.96
55687;BME280;41911;52.362;4.978;2022-12-18T00:43:40;102806.21;;;-3.19;49.93
55687;BME280;41911;52.362;4.978;2022-12-18T00:44:12;102807.74;;;-3.28;50.07
55687;BME280;41911;52.362;4.978;2022-12-18T00:44:44;102808.91;;;-3.26;50.10
55687;BME280;41911;52.362;4.978;2022-12-18T00:45:15;102808.22;;;-3.08;49.96
55687;BME280;41911;52.362;4.978;2022-12-18T00:45:46;102807.87;;;-3.31;49.90
55687;BME280;41911;52.362;4.978;2022-12-18T00:46:17;102806.97;;;-3.11;49.79
55687;BME280;41911;52.362;4.978;2022-12-18T00:46:48;102808.64;;;-3.16;49.64
55687;BME280;41911;52.362;4.978;2022-12-18T00:47:19;102808.98;;;-2.91;49.53
55687;BME280;41911;52.362;4.978;2022-12-18T00:47:50;102807.22;;;-3.62;49.68
55687;BME280;41911;52.362;4.978;2022-12-18T00:48:23;102804.78;;;-2.98;49.61
55687;BME280;41911;52.362;4.978;2022-12-18T00:48:54;102804.70;;;-2.77;49.32
55687;BME280;41911;52.362;4.978;2022-12-18T00:49:25;102806.57;;;-2.68;49.26
55687;BME280;41911;52.362;4.978;2022-12-18T00:49:56;102805.97;;;-2.89;49.17
55687;BME280;41911;52.362;4.978;2022-12-18T00:50:27;102805.97;;;-2.80;49.22
55687;BME280;41911;52.362;4.978;2022-12-18T00:50:58;102804.70;;;-3.13;49.29
55687;BME280;41911;52.362;4.978;2022-12-18T00:51:29;102806.56;;;-2.82;49.39
55687;BME280;41911;52.362;4.978;2022-12-18T00:52:00;102807.77;;;-3.00;49.37
55687;BME280;41911;52.362;4.978;2022-12-18T00:52:31;102805.77;;;-2.97;49.28
55687;BME280;41911;52.362;4.978;2022-12-18T00:53:02;102806.67;;;-2.81;49.11
55687;BME280;41911;52.362;4.978;2022-12-18T00:53:33;102805.68;;;-2.79;49.02
55687;BME280;41911;52.362;4.978;2022-12-18T00:54:04;102804.82;;;-2.68;48.86
55687;BME280;41911;52.362;4.978;2022-12-18T00:54:35;102805.24;;;-2.85;49.00
55687;BME280;41911;52.362;4.978;2022-12-18T00:55:07;102803.65;;;-2.82;49.01
55687;BME280;41911;52.362;4.978;2022-12-18T00:55:39;102803.28;;;-2.49;48.99
55687;BME280;41911;52.362;4.978;2022-12-18T00:56:10;102801.31;;;-3.04;48.85
55687;BME280;41911;52.362;4.978;2022-12-18T00:56:42;102804.18;;;-2.40;48.71
55687;BME280;41911;52.362;4.978;2022-12-18T00:57:13;102803.28;;;-2.85;48.74
55687;BME280;41911;52.362;4.978;2022-12-18T00:57:44;102806.20;;;-2.74;48.64
55687;BME280;41911;52.362;4.978;2022-12-18T00:58:16;102805.41;;;-2.75;48.74
55687;BME280;41911;52.362;4.978;2022-12-18T00:58:48;102806.42;;;-2.68;48.73
55687;BME280;41911;52.362;4.978;2022-12-18T00:59:19;102806.71;;;-2.68;48.63
55687;BME280;41911;52.362;4.978;2022-12-18T00:59:52;102805.82;;;-2.60;48.76
55687;BME280;41911;52.362;4.978;2022-12-18T01:00:23;102806.87;;;-2.53;48.79
55687;BME280;41911;52.362;4.978;2022-12-18T01:00:54;102805.84;;;-3.22;48.92
55687;BME280;41911;52.362;4.978;2022-12-18T01:01:25;102804.13;;;-3.10;49.13
55687;BME280;41911;52.362;4.978;2022-12-18T01:01:56;102803.39;;;-3.27;49.15
55687;BME280;41911;52.362;4.978;2022-12-18T01:02:27;102804.28;;;-3.23;49.14
55687;BME280;41911;52.362;4.978;2022-12-18T01:02:58;102799.93;;;-2.99;49.31
55687;BME280;41911;52.362;4.978;2022-12-18T01:03:29;102802.45;;;-3.31;49.71
55687;BME280;41911;52.362;4.978;2022-12-18T01:04:01;102801.08;;;-3.21;49.70
55687;BME280;41911;52.362;4.978;2022-12-18T01:04:32;102801.49;;;-3.21;49.56
55687;BME280;41911;52.362;4.978;2022-12-18T01:05:04;102800.35;;;-3.36;49.85
55687;BME280;41911;52.362;4.978;2022-12-18T01:05:39;102802.26;;;-3.41;49.93
55687;BME280;41911;52.362;4.978;2022-12-18T01:06:12;102804.98;;;-3.44;49.84
55687;BME280;41911;52.362;4.978;2022-12-18T01:06:43;102805.38;;;-3.27;49.68
55687;BME280;41911;52.362;4.978;2022-12-18T01:07:14;102807.17;;;-3.19;49.48
55687;BME280;41911;52.362;4.978;2022-12-18T01:07:45;102808.22;;;-3.42;49.44
55687;BME280;41911;52.362;4.978;2022-12-18T01:08:16;102808.38;;;-3.17;49.56
55687;BME280;41911;52.362;4.978;2022-12-18T01:08:47;102806.70;;;-3.33;49.77
55687;BME280;41911;52.362;4.978;2022-12-18T01:09:18;102809.07;;;-3.21;49.61
55687;BME280;41911;52.362;4.978;2022-12-18T01:09:49;102806.81;;;-3.35;49.45
55687;BME280;41911;52.362;4.978;2022-12-18T01:10:20;102807.06;;;-3.26;49.39
55687;BME280;41911;52.362;4.978;2022-12-18T01:10:51;102807.61;;;-3.03;49.40
55687;BME280;41911;52.362;4.978;2022-12-18T01:11:23;102810.02;;;-2.81;49.12
55687;BME280;41911;52.362;4.978;2022-12-18T01:11:54;102809.38;;;-2.85;49.14
55687;BME280;41911;52.362;4.978;2022-12-18T01:12:25;102808.69;;;-3.09;49.18
55687;BME280;41911;52.362;4.978;2022-12-18T01:12:56;102810.37;;;-2.87;49.07
55687;BME280;41911;52.362;4.978;2022-12-18T01:13:27;102813.40;;;-2.72;49.00
55687;BME280;41911;52.362;4.978;2022-12-18T01:13:58;102812.15;;;-2.68;48.92
55687;BME280;41911;52.362;4.978;2022-12-18T01:14:29;102813.60;;;-2.84;48.90
55687;BME280;41911;52.362;4.978;2022-12-18T01:15:00;102811.46;;;-2.51;48.76
55687;BME280;41911;52.362;4.978;2022-12-18T01:15:31;102810.82;;;-3.06;49.03
55687;BME280;41911;52.362;4.978;2022-12-18T01:16:02;102813.01;;;-2.88;48.91
55687;BME280;41911;52.362;4.978;2022-12-18T01:16:33;102811.34;;;-2.72;48.75
55687;BME280;41911;52.362;4.978;2022-12-18T01:17:04;102813.35;;;-2.99;48.53
55687;BME280;41911;52.362;4.978;2022-12-18T01:17:35;102813.55;;;-2.71;48.53
55687;BME280;41911;52.362;4.978;2022-12-18T01:18:06;102815.79;;;-2.73;48.48
55687;BME280;41911;52.362;4.978;2022-12-18T01:18:37;102813.42;;;-2.76;48.63
55687;BME280;41911;52.362;4.978;2022-12-18T01:19:08;102811.46;;;-2.95;48.52
55687;BME280;41911;52.362;4.978;2022-12-18T01:19:39;102809.08;;;-2.58;48.46
55687;BME280;41911;52.362;4.978;2022-12-18T01:20:12;102809.38;;;-2.81;48.38
55687;BME280;41911;52.362;4.978;2022-12-18T01:20:43;102807.29;;;-2.55;48.40
55687;BME280;41911;52.362;4.978;2022-12-18T01:21:15;102804.47;;;-2.76;48.28
55687;BME280;41911;52.362;4.978;2022-12-18T01:21:46;102801.07;;;-2.52;48.11
55687;BME280;41911;52.362;4.978;2022-12-18T01:22:17;102801.66;;;-3.21;48.69
55687;BME280;41911;52.362;4.978;2022-12-18T01:22:48;102799.29;;;-2.73;48.67
55687;BME280;41911;52.362;4.978;2022-12-18T01:23:19;102797.15;;;-2.99;48.46
55687;BME280;41911;52.362;4.978;2022-12-18T01:23:52;102798.27;;;-2.80;48.51
55687;BME280;41911;52.362;4.978;2022-12-18T01:24:23;102797.71;;;-2.98;48.44
55687;BME280;41911;52.362;4.978;2022-12-18T01:24:54;102799.83;;;-2.69;48.48
55687;BME280;41911;52.362;4.978;2022-12-18T01:25:25;102801.27;;;-2.78;48.62
55687;BME280;41911;52.362;4.978;2022-12-18T01:25:56;102799.82;;;-2.79;48.59
55687;BME280;41911;52.362;4.978;2022-12-18T01:26:28;102800.73;;;-2.73;48.47
55687;BME280;41911;52.362;4.978;2022-12-18T01:26:59;102802.70;;;-2.53;48.41
55687;BME280;41911;52.362;4.978;2022-12-18T01:27:30;102802.01;;;-2.88;48.26
55687;BME280;41911;52.362;4.978;2022-12-18T01:28:02;102805.44;;;-2.96;48.55
55687;BME280;41911;52.362;4.978;2022-12-18T01:28:33;102802.57;;;-3.30;48.76
55687;BME280;41911;52.362;4.978;2022-12-18T01:29:06;102807.53;;;-2.84;48.76
55687;BME280;41911;52.362;4.978;2022-12-18T01:29:37;102811.19;;;-3.09;48.75
55687;BME280;41911;52.362;4.978;2022-12-18T01:30:09;102812.80;;;-2.98;49.02
55687;BME280;41911;52.362;4.978;2022-12-18T01:30:40;102814.29;;;-3.18;49.43
55687;BME280;41911;52.362;4.978;2022-12-18T01:31:13;102817.23;;;-3.00;49.13
55687;BME280;41911;52.362;4.978;2022-12-18T01:31:44;102816.89;;;-3.65;49.16
55687;BME280;41911;52.362;4.978;2022-12-18T01:32:15;102817.83;;;-3.40;49.24
55687;BME280;41911;52.362;4.978;2022-12-18T01:32:46;102817.48;;;-3.07;49.21
55687;BME280;41911;52.362;4.978;2022-12-18T01:33:17;102814.53;;;-3.55;49.70
55687;BME280;41911;52.362;4.978;2022-12-18T01:33:48;102814.68;;;-3.50;49.71
55687;BME280;41911;52.362;4.978;2022-12-18T01:34:19;102815.10;;;-3.42;49.73
55687;BME280;41911;52.362;4.978;2022-12-18T01:34:50;102814.90;;;-3.54;49.87
55687;BME280;41911;52.362;4.978;2022-12-18T01:35:21;102815.66;;;-3.69;49.95
55687;BME280;41911;52.362;4.978;2022-12-18T01:35:52;102813.52;;;-3.55;49.85
55687;BME280;41911;52.362;4.978;2022-12-18T01:36:24;102813.37;;;-3.37;49.49
55687;BME280;41911;52.362;4.978;2022-12-18T01:36:56;102812.26;;;-3.52;49.63
55687;BME280;41911;52.362;4.978;2022-12-18T01:37:27;102811.99;;;-3.63;49.88
55687;BME280;41911;52.362;4.978;2022-12-18T01:37:57;102809.32;;;-3.79;50.39
55687;BME280;41911;52.362;4.978;2022-12-18T01:38:28;102811.37;;;-3.49;50.27
55687;BME280;41911;52.362;4.978;2022-12-18T01:39:00;102809.89;;;-3.52;50.39
55687;BME280;41911;52.362;4.978;2022-12-18T01:39:32;102809.51;;;-3.66;50.24
55687;BME280;41911;52.362;4.978;2022-12-18T01:40:04;102810.67;;;-3.89;50.43
55687;BME280;41911;52.362;4.978;2022-12-18T01:40:35;102809.68;;;-3.55;50.34
55687;BME280;41911;52.362;4.978;2022-12-18T01:41:07;102810.56;;;-4.08;50.55
55687;BME280;41911;52.362;4.978;2022-12-18T01:41:40;102813.12;;;-3.63;50.60
55687;BME280;41911;52.362;4.978;2022-12-18T01:42:14;102815.03;;;-3.82;50.51
55687;BME280;41911;52.362;4.978;2022-12-18T01:42:50;102815.11;;;-3.42;50.58
55687;BME280;41911;52.362;4.978;2022-12-18T01:43:21;102816.95;;;-3.57;50.43
55687;BME280;41911;52.362;4.978;2022-12-18T01:43:54;102818.01;;;-3.67;50.41
55687;BME280;41911;52.362;4.978;2022-12-18T01:45:00;102813.17;;;-3.92;50.81
55687;BME280;41911;52.362;4.978;2022-12-18T01:45:32;102816.49;;;-3.66;50.35
55687;BME280;41911;52.362;4.978;2022-12-18T01:46:03;102816.57;;;-3.65;50.39
55687;BME280;41911;52.362;4.978;2022-12-18T01:46:35;102817.29;;;-3.57;50.36
55687;BME280;41911;52.362;4.978;2022-12-18T01:47:06;102818.29;;;-3.59;50.34
55687;BME280;41911;52.362;4.978;2022-12-18T01:47:41;102820.13;;;-3.78;50.28
55687;BME280;41911;52.362;4.978;2022-12-18T01:48:14;102818.11;;;-3.68;50.01
55687;BME280;41911;52.362;4.978;2022-12-18T01:48:46;102819.30;;;-3.51;49.83
55687;BME280;41911;52.362;4.978;2022-12-18T01:49:17;102822.08;;;-3.46;49.85
55687;BME280;41911;52.362;4.978;2022-12-18T01:49:48;102822.56;;;-3.38;49.83
55687;BME280;41911;52.362;4.978;2022-12-18T01:50:22;102823.16;;;-3.53;49.76
55687;BME280;41911;52.362;4.978;2022-12-18T01:50:54;102821.51;;;-3.62;49.90
55687;BME280;41911;52.362;4.978;2022-12-18T01:51:27;102821.92;;;-3.54;49.74
55687;BME280;41911;52.362;4.978;2022-12-18T01:51:58;102823.48;;;-3.48;49.69
55687;BME280;41911;52.362;4.978;2022-12-18T01:52:31;102824.94;;;-3.36;49.54
55687;BME280;41911;52.362;4.978;2022-12-18T01:53:07;102825.87;;;-3.49;49.69
55687;BME280;41911;52.362;4.978;2022-12-18T01:53:41;102830.40;;;-3.38;49.57
55687;BME280;41911;52.362;4.978;2022-12-18T01:54:13;102829.42;;;-3.54;49.76
55687;BME280;41911;52.362;4.978;2022-12-18T01:54:44;102834.08;;;-3.52;49.82
55687;BME280;41911;52.362;4.978;2022-12-18T01:55:19;102834.90;;;-3.54;49.68
55687;BME280;41911;52.362;4.978;2022-12-18T01:55:53;102836.12;;;-3.74;49.92
55687;BME280;41911;52.362;4.978;2022-12-18T01:56:25;102836.40;;;-3.40;49.80
55687;BME280;41911;52.362;4.978;2022-12-18T01:56:56;102838.26;;;-3.36;49.77
55687;BME280;41911;52.362;4.978;2022-12-18T01:57:28;102839.59;;;-3.06;49.91
55687;BME280;41911;52.362;4.978;2022-12-18T01:58:00;102838.99;;;-3.36;49.85
55687;BME280;41911;52.362;4.978;2022-12-18T01:58:39;102838.52;;;-3.33;50.04
55687;BME280;41911;52.362;4.978;2022-12-18T01:59:13;102841.02;;;-3.43;50.13
55687;BME280;41911;52.362;4.978;2022-12-18T01:59:49;102841.67;;;-3.62;50.27
55687;BME280;41911;52.362;4.978;2022-12-18T02:00:22;102840.11;;;-3.72;50.12
55687;BME280;41911;52.362;4.978;2022-12-18T02:00:54;102841.42;;;-3.70;50.10
55687;BME280;41911;52.362;4.978;2022-12-18T02:01:25;102844.30;;;-3.36;50.14
55687;BME280;41911;52.362;4.978;2022-12-18T02:01:58;102845.27;;;-3.73;50.18
55687;BME280;41911;52.362;4.978;2022-12-18T02:02:30;102846.02;;;-3.84;50.24
55687;BME280;41911;52.362;4.978;2022-12-18T02:03:01;102844.94;;;-3.68;50.12
55687;BME280;41911;52.362;4.978;2022-12-18T02:03:32;102846.68;;;-3.49;49.70
55687;BME280;41911;52.362;4.978;2022-12-18T02:04:49;102847.74;;;-3.53;49.70
55687;BME280;41911;52.362;4.978;2022-12-18T02:05:25;102849.71;;;-3.50;49.73
55687;BME280;41911;52.362;4.978;2022-12-18T02:06:05;102852.01;;;-3.42;49.65
55687;BME280;41911;52.362;4.978;2022-12-18T02:06:40;102850.93;;;-3.52;49.73
55687;BME280;41911;52.362;4.978;2022-12-18T02:07:20;102854.98;;;-3.70;49.58
55687;BME280;41911;52.362;4.978;2022-12-18T02:08:06;102853.89;;;-3.42;49.51
55687;BME280;41911;52.362;4.978;2022-12-18T02:08:47;102856.76;;;-3.43;49.55
55687;BME280;41911;52.362;4.978;2022-12-18T02:09:22;102856.84;;;-3.38;49.62
55687;BME280;41911;52.362;4.978;2022-12-18T02:09:59;102860.68;;;-3.26;49.51
55687;BME280;41911;52.362;4.978;2022-12-18T02:10:39;102859.05;;;-3.17;49.51
55687;BME280;41911;52.362;4.978;2022-12-18T02:11:20;102857.87;;;-3.16;49.41
55687;BME280;41911;52.362;4.978;2022-12-18T02:12:00;102857.32;;;-3.25;49.31
55687;BME280;41911;52.362;4.978;2022-12-18T02:12:41;102858.81;;;-2.97;49.18
55687;BME280;41911;52.362;4.978;2022-12-18T02:13:17;102861.45;;;-3.27;49.15
55687;BME280;41911;52.362;4.978;2022-12-18T02:13:58;102861.55;;;-3.21;49.02
55687;BME280;41911;52.362;4.978;2022-12-18T02:14:36;102865.27;;;-2.99;48.82
55687;BME280;41911;52.362;4.978;2022-12-18T02:15:16;102864.97;;;-3.19;49.03
55687;BME280;41911;52.362;4.978;2022-12-18T02:15:56;102867.21;;;-3.12;48.98
55687;BME280;41911;52.362;4.978;2022-12-18T02:16:38;102867.76;;;-3.03;48.86
55687;BME280;41911;52.362;4.978;2022-12-18T02:17:17;102865.83;;;-2.98;48.74
55687;BME280;41911;52.362;4.978;2022-12-18T02:17:54;102867.48;;;-2.97;48.64
55687;BME280;41911;52.362;4.978;2022-12-18T02:18:32;102868.16;;;-2.81;48.34
55687;BME280;41911;52.362;4.978;2022-12-18T02:19:12;102868.87;;;-2.75;48.29
55687;BME280;41911;52.362;4.978;2022-12-18T02:20:01;102868.92;;;-2.72;48.30
55687;BME280;41911;52.362;4.978;2022-12-18T02:20:36;102869.30;;;-2.73;48.32
55687;BME280;41911;52.362;4.978;2022-12-18T02:21:20;102867.97;;;-2.71;48.20
55687;BME280;41911;52.362;4.978;2022-12-18T02:22:04;102868.40;;;-3.03;48.23
55687;BME280;41911;52.362;4.978;2022-12-18T02:22:47;102867.19;;;-2.69;48.27
55687;BME280;41911;52.362;4.978;2022-12-18T02:23:37;102869.35;;;-3.00;48.10
55687;BME280;41911;52.362;4.978;2022-12-18T02:24:23;102867.05;;;-2.71;48.08
55687;BME280;41911;52.362;4.978;2022-12-18T02:25:10;102860.67;;;-2.99;48.06
55687;BME280;41911;52.362;4.978;2022-12-18T02:26:02;102862.14;;;-2.94;47.98
55687;BME280;41911;52.362;4.978;2022-12-18T02:26:40;102859.04;;;-2.57;47.95
55687;BME280;41911;52.362;4.978;2022-12-18T02:27:15;102858.37;;;-2.57;48.00
55687;BME280;41911;52.362;4.978;2022-12-18T02:27:47;102855.12;;;-2.87;47.96
55687;BME280;41911;52.362;4.978;2022-12-18T02:28:20;102854.52;;;-2.81;47.89
55687;BME280;41911;52.362;4.978;2022-12-18T02:28:57;102852.73;;;-2.51;47.79
55687;BME280;41911;52.362;4.978;2022-12-18T02:29:33;102850.50;;;-2.80;47.85
55687;BME280;41911;52.362;4.978;2022-12-18T02:30:07;102850.38;;;-2.76;47.81
55687;BME280;41911;52.362;4.978;2022-12-18T02:30:39;102846.62;;;-2.70;47.71
55687;BME280;41911;52.362;4.978;2022-12-18T02:31:17;102845.07;;;-2.58;47.63
55687;BME280;41911;52.362;4.978;2022-12-18T02:31:52;102846.57;;;-2.88;47.65
55687;BME280;41911;52.362;4.978;2022-12-18T02:32:26;102845.54;;;-2.42;47.50
55687;BME280;41911;52.362;4.978;2022-12-18T02:33:01;102843.48;;;-2.60;47.40
55687;BME280;41911;52.362;4.978;2022-12-18T02:33:36;102843.87;;;-2.48;47.41
55687;BME280;41911;52.362;4.978;2022-12-18T02:34:09;102845.66;;;-2.73;47.55
55687;BME280;41911;52.362;4.978;2022-12-18T02:34:43;102844.36;;;-2.86;47.57
55687;BME280;41911;52.362;4.978;2022-12-18T02:35:18;102841.93;;;-2.98;47.55
55687;BME280;41911;52.362;4.978;2022-12-18T02:35:52;102840.66;;;-2.98;47.56
55687;BME280;41911;52.362;4.978;2022-12-18T02:36:25;102837.73;;;-2.65;47.66
55687;BME280;41911;52.362;4.978;2022-12-18T02:37:00;102836.77;;;-2.85;47.61
55687;BME280;41911;52.362;4.978;2022-12-18T02:37:34;102830.64;;;-2.58;47.49
55687;BME280;41911;52.362;4.978;2022-12-18T02:38:06;102829.92;;;-2.58;47.54
55687;BME280;41911;52.362;4.978;2022-12-18T02:38:37;102828.28;;;-2.87;47.54
55687;BME280;41911;52.362;4.978;2022-12-18T02:39:11;102824.54;;;-2.61;47.51
55687;BME280;41911;52.362;4.978;2022-12-18T02:39:46;102824.92;;;-2.97;47.55
55687;BME280;41911;52.362;4.978;2022-12-18T02:40:19;102823.29;;;-2.99;47.76
55687;BME280;41911;52.362;4.978;2022-12-18T02:40:53;102823.18;;;-3.07;47.72
55687;BME280;41911;52.362;4.978;2022-12-18T02:41:25;102821.65;;;-2.74;47.68
55687;BME280;41911;52.362;4.978;2022-12-18T02:41:57;102823.31;;;-3.00;47.61
55687;BME280;41911;52.362;4.978;2022-12-18T02:42:30;102823.28;;;-2.98;47.63
55687;BME280;41911;52.362;4.978;2022-12-18T02:43:07;102822.66;;;-2.56;47.60
55687;BME280;41911;52.362;4.978;2022-12-18T02:43:39;102822.75;;;-2.77;47.45
55687;BME280;41911;52.362;4.978;2022-12-18T02:44:13;102821.26;;;-2.95;47.51
55687;BME280;41911;52.362;4.978;2022-12-18T02:44:46;102818.76;;;-2.75;47.54
55687;BME280;41911;52.362;4.978;2022-12-18T02:45:18;102817.67;;;-2.92;47.66
55687;BME280;41911;52.362;4.978;2022-12-18T02:45:52;102818.06;;;-3.00;47.75
55687;BME280;41911;52.362;4.978;2022-12-18T02:46:29;102818.19;;;-3.02;47.75
55687;BME280;41911;52.362;4.978;2022-12-18T02:47:01;102815.28;;;-3.02;47.81
55687;BME280;41911;52.362;4.978;2022-12-18T02:47:38;102817.04;;;-3.25;47.69
55687;BME280;41911;52.362;4.978;2022-12-18T02:48:10;102813.43;;;-2.89;47.72
55687;BME280;41911;52.362;4.978;2022-12-18T02:48:40;102815.63;;;-2.97;47.60
55687;BME280;41911;52.362;4.978;2022-12-18T02:49:24;102811.84;;;-3.19;47.70
55687;BME280;41911;52.362;4.978;2022-12-18T02:50:04;102811.47;;;-2.91;47.73
55687;BME280;41911;52.362;4.978;2022-12-18T02:50:44;102809.54;;;-2.94;47.80
55687;BME280;41911;52.362;4.978;2022-12-18T02:51:23;102807.12;;;-2.80;47.93
55687;BME280;41911;52.362;4.978;2022-12-18T02:52:04;102807.92;;;-3.06;47.95
55687;BME280;41911;52.362;4.978;2022-12-18T02:52:43;102807.34;;;-2.94;47.83
55687;BME280;41911;52.362;4.978;2022-12-18T02:53:24;102807.99;;;-2.90;47.66
55687;BME280;41911;52.362;4.978;2022-12-18T02:54:04;102812.64;;;-2.98;47.84
55687;BME280;41911;52.362;4.978;2022-12-18T02:54:48;102808.75;;;-2.92;47.68
55687;BME280;41911;52.362;4.978;2022-12-18T02:55:30;102805.16;;;-2.72;47.85
55687;BME280;41911;52.362;4.978;2022-12-18T02:56:09;102802.41;;;-2.96;47.80